sensor_id;sensor_type;location;lat;lon;timestamp;P1;durP1;ratioP1;P2;durP2;ratioP2
8113;SDS011;4099;52.684;9.918;2022-07-22T00:02:09;12.50;;;11.40;;
8113;SDS011;4099;52.684;9.918;2022-07-22T00:07:13;11.63;;;10.53;;
8113;SDS011;4099;52.684;9.918;2022-07-22T00:12:15;11.97;;;10.97;;
8113;SDS011;4099;52.684;9.918;2022-07-22T00:17:17;13.40;;;12.10;;
8113;SDS011;4099;52.684;9.918;2022-07-22T00:22:20;13.90;;;12.53;;
8113;SDS011;4099;52.684;9.918;2022-07-22T00:27:22;13.83;;;12.43;;
8113;SDS011;4099;52.684;9.918;2022-07-22T00:32:24;13.23;;;12.07;;
8113;SDS011;4099;52.684;9.918;2022-07-22T00:37:27;13.30;;;12.00;;
8113;SDS011;4099;52.684;9.918;2022-07-22T00:42:29;14.23;;;12.67;;
8113;SDS011;4099;52.684;9.918;2022-07-22T00:47:31;14.53;;;13.10;;
8113;SDS011;4099;52.684;9.918;2022-07-22T00:52:35;14.40;;;13.00;;
8113;SDS011;4099;52.684;9.918;2022-07-22T00:57:37;13.70;;;12.43;;
8113;SDS011;4099;52.684;9.918;2022-07-22T01:02:39;13.63;;;12.37;;
8113;SDS011;4099;52.684;9.918;2022-07-22T01:07:43;14.07;;;12.77;;
8113;SDS011;4099;52.684;9.918;2022-07-22T01:12:44;15.73;;;14.17;;
8113;SDS011;4099;52.684;9.918;2022-07-22T01:17:46;17.43;;;15.73;;
8113;SDS011;4099;52.684;9.918;2022-07-22T01:22:49;17.17;;;15.47;;
8113;SDS011;4099;52.684;9.918;2022-07-22T01:27:51;19.50;;;17.70;;
8113;SDS011;4099;52.684;9.918;2022-07-22T01:32:53;18.73;;;16.93;;
8113;SDS011;4099;52.684;9.918;2022-07-22T01:37:56;20.50;;;18.40;;
8113;SDS011;4099;52.684;9.918;2022-07-22T01:42:58;20.87;;;18.77;;
8113;SDS011;4099;52.684;9.918;2022-07-22T01:48:02;23.17;;;20.17;;
8113;SDS011;4099;52.684;9.918;2022-07-22T01:53:06;24.60;;;20.90;;
8113;SDS011;4099;52.684;9.918;2022-07-22T01:58:09;23.43;;;20.70;;
8113;SDS011;4099;52.684;9.918;2022-07-22T02:03:11;26.57;;;22.13;;
8113;SDS011;4099;52.684;9.918;2022-07-22T02:08:14;25.60;;;20.47;;
8113;SDS011;4099;52.684;9.918;2022-07-22T02:13:55;18.03;;;14.20;;
8113;SDS011;4099;52.684;9.918;2022-07-22T02:18:58;15.83;;;12.90;;
8113;SDS011;4099;52.684;9.918;2022-07-22T02:24:02;13.17;;;11.00;;
8113;SDS011;4099;52.684;9.918;2022-07-22T02:29:04;10.10;;;7.87;;
8113;SDS011;4099;52.684;9.918;2022-07-22T02:34:05;8.23;;;6.87;;
8113;SDS011;4099;52.684;9.918;2022-07-22T02:39:09;8.10;;;5.87;;
8113;SDS011;4099;52.684;9.918;2022-07-22T02:44:11;6.03;;;4.93;;
8113;SDS011;4099;52.684;9.918;2022-07-22T02:49:14;5.43;;;4.77;;
8113;SDS011;4099;52.684;9.918;2022-07-22T02:54:19;5.63;;;5.13;;
8113;SDS011;4099;52.684;9.918;2022-07-22T02:59:21;6.30;;;5.67;;
8113;SDS011;4099;52.684;9.918;2022-07-22T03:04:23;6.37;;;5.73;;
8113;SDS011;4099;52.684;9.918;2022-07-22T03:09:26;6.43;;;5.77;;
8113;SDS011;4099;52.684;9.918;2022-07-22T03:14:28;6.80;;;5.53;;
8113;SDS011;4099;52.684;9.918;2022-07-22T03:19:30;6.07;;;5.53;;
8113;SDS011;4099;52.684;9.918;2022-07-22T03:24:33;6.43;;;5.80;;
8113;SDS011;4099;52.684;9.918;2022-07-22T03:29:35;8.57;;;6.20;;
8113;SDS011;4099;52.684;9.918;2022-07-22T03:34:37;9.63;;;8.13;;
8113;SDS011;4099;52.684;9.918;2022-07-22T03:39:44;9.80;;;7.70;;
8113;SDS011;4099;52.684;9.918;2022-07-22T03:44:46;9.33;;;7.60;;
8113;SDS011;4099;52.684;9.918;2022-07-22T03:49:48;10.07;;;8.33;;
8113;SDS011;4099;52.684;9.918;2022-07-22T03:54:56;9.63;;;8.13;;
8113;SDS011;4099;52.684;9.918;2022-07-22T03:59:58;9.47;;;8.13;;
8113;SDS011;4099;52.684;9.918;2022-07-22T04:05:00;9.73;;;8.83;;
8113;SDS011;4099;52.684;9.918;2022-07-22T04:10:05;10.33;;;8.10;;
8113;SDS011;4099;52.684;9.918;2022-07-22T04:15:11;10.07;;;8.60;;
8113;SDS011;4099;52.684;9.918;2022-07-22T04:20:13;9.27;;;7.93;;
8113;SDS011;4099;52.684;9.918;2022-07-22T04:25:46;9.77;;;8.77;;
8113;SDS011;4099;52.684;9.918;2022-07-22T04:30:48;9.80;;;8.90;;
8113;SDS011;4099;52.684;9.918;2022-07-22T04:35:50;10.07;;;9.07;;
8113;SDS011;4099;52.684;9.918;2022-07-22T04:40:54;11.40;;;10.10;;
8113;SDS011;4099;52.684;9.918;2022-07-22T04:45:57;13.40;;;12.00;;
8113;SDS011;4099;52.684;9.918;2022-07-22T04:51:03;15.77;;;12.90;;
8113;SDS011;4099;52.684;9.918;2022-07-22T04:56:08;15.67;;;14.07;;
8113;SDS011;4099;52.684;9.918;2022-07-22T05:01:12;16.60;;;14.80;;
8113;SDS011;4099;52.684;9.918;2022-07-22T05:06:40;17.40;;;12.97;;
8113;SDS011;4099;52.684;9.918;2022-07-22T05:11:43;15.27;;;12.77;;
8113;SDS011;4099;52.684;9.918;2022-07-22T05:16:45;15.00;;;12.40;;
8113;SDS011;4099;52.684;9.918;2022-07-22T05:21:48;14.90;;;11.60;;
8113;SDS011;4099;52.684;9.918;2022-07-22T05:26:51;15.10;;;11.53;;
8113;SDS011;4099;52.684;9.918;2022-07-22T05:31:54;15.20;;;11.17;;
8113;SDS011;4099;52.684;9.918;2022-07-22T05:36:55;12.47;;;10.37;;
8113;SDS011;4099;52.684;9.918;2022-07-22T05:41:59;14.10;;;10.07;;
8113;SDS011;4099;52.684;9.918;2022-07-22T05:47:00;12.63;;;9.40;;
8113;SDS011;4099;52.684;9.918;2022-07-22T05:52:02;12.10;;;9.17;;
8113;SDS011;4099;52.684;9.918;2022-07-22T05:57:06;9.97;;;8.50;;
8113;SDS011;4099;52.684;9.918;2022-07-22T06:02:10;10.70;;;8.50;;
8113;SDS011;4099;52.684;9.918;2022-07-22T06:07:15;9.97;;;8.50;;
8113;SDS011;4099;52.684;9.918;2022-07-22T06:12:23;9.80;;;7.43;;
8113;SDS011;4099;52.684;9.918;2022-07-22T06:17:25;7.20;;;6.50;;
8113;SDS011;4099;52.684;9.918;2022-07-22T06:22:27;7.37;;;6.63;;
8113;SDS011;4099;52.684;9.918;2022-07-22T06:27:31;8.83;;;6.53;;
8113;SDS011;4099;52.684;9.918;2022-07-22T06:32:34;9.57;;;6.80;;
8113;SDS011;4099;52.684;9.918;2022-07-22T06:37:36;11.10;;;6.20;;
8113;SDS011;4099;52.684;9.918;2022-07-22T06:42:39;8.70;;;7.00;;
8113;SDS011;4099;52.684;9.918;2022-07-22T06:48:00;8.87;;;6.10;;
8113;SDS011;4099;52.684;9.918;2022-07-22T06:53:04;9.60;;;6.40;;
8113;SDS011;4099;52.684;9.918;2022-07-22T06:58:07;8.33;;;6.23;;
8113;SDS011;4099;52.684;9.918;2022-07-22T07:03:09;8.57;;;6.33;;
8113;SDS011;4099;52.684;9.918;2022-07-22T07:08:11;13.43;;;6.87;;
8113;SDS011;4099;52.684;9.918;2022-07-22T07:13:15;7.23;;;6.30;;
8113;SDS011;4099;52.684;9.918;2022-07-22T07:18:18;7.03;;;6.17;;
8113;SDS011;4099;52.684;9.918;2022-07-22T07:23:20;7.87;;;5.90;;
8113;SDS011;4099;52.684;9.918;2022-07-22T07:28:24;8.40;;;5.93;;
8113;SDS011;4099;52.684;9.918;2022-07-22T07:33:30;7.67;;;5.70;;
8113;SDS011;4099;52.684;9.918;2022-07-22T07:38:32;5.93;;;5.13;;
8113;SDS011;4099;52.684;9.918;2022-07-22T07:43:38;6.17;;;5.13;;
8113;SDS011;4099;52.684;9.918;2022-07-22T07:48:40;5.60;;;4.87;;
8113;SDS011;4099;52.684;9.918;2022-07-22T07:53:42;6.07;;;4.63;;
8113;SDS011;4099;52.684;9.918;2022-07-22T07:58:45;7.23;;;4.60;;
8113;SDS011;4099;52.684;9.918;2022-07-22T08:03:47;6.47;;;5.13;;
8113;SDS011;4099;52.684;9.918;2022-07-22T08:08:50;10.23;;;5.60;;
8113;SDS011;4099;52.684;9.918;2022-07-22T08:14:03;8.47;;;5.70;;
8113;SDS011;4099;52.684;9.918;2022-07-22T08:19:12;6.80;;;5.40;;
8113;SDS011;4099;52.684;9.918;2022-07-22T08:24:14;5.73;;;5.00;;
8113;SDS011;4099;52.684;9.918;2022-07-22T08:29:18;6.70;;;5.17;;
8113;SDS011;4099;52.684;9.918;2022-07-22T08:34:20;6.10;;;5.50;;
8113;SDS011;4099;52.684;9.918;2022-07-22T08:39:22;9.23;;;6.70;;
8113;SDS011;4099;52.684;9.918;2022-07-22T08:44:29;8.33;;;6.00;;
8113;SDS011;4099;52.684;9.918;2022-07-22T08:49:32;10.10;;;6.00;;
8113;SDS011;4099;52.684;9.918;2022-07-22T08:54:53;6.73;;;5.43;;
8113;SDS011;4099;52.684;9.918;2022-07-22T08:59:59;7.37;;;5.57;;
8113;SDS011;4099;52.684;9.918;2022-07-22T09:05:02;8.17;;;5.03;;
8113;SDS011;4099;52.684;9.918;2022-07-22T09:10:07;6.53;;;4.90;;
8113;SDS011;4099;52.684;9.918;2022-07-22T09:15:31;7.33;;;4.57;;
8113;SDS011;4099;52.684;9.918;2022-07-22T09:20:57;12.87;;;5.30;;
8113;SDS011;4099;52.684;9.918;2022-07-22T09:26:29;5.23;;;3.80;;
8113;SDS011;4099;52.684;9.918;2022-07-22T09:31:52;7.47;;;3.43;;
8113;SDS011;4099;52.684;9.918;2022-07-22T09:37:12;4.33;;;2.90;;
8113;SDS011;4099;52.684;9.918;2022-07-22T09:42:15;4.27;;;2.50;;
8113;SDS011;4099;52.684;9.918;2022-07-22T09:47:27;6.33;;;2.93;;
8113;SDS011;4099;52.684;9.918;2022-07-22T09:52:58;5.80;;;2.90;;
8113;SDS011;4099;52.684;9.918;2022-07-22T09:58:02;6.57;;;2.83;;
8113;SDS011;4099;52.684;9.918;2022-07-22T10:03:06;4.20;;;3.80;;
8113;SDS011;4099;52.684;9.918;2022-07-22T10:08:09;4.10;;;2.70;;
8113;SDS011;4099;52.684;9.918;2022-07-22T10:13:11;5.53;;;3.33;;
8113;SDS011;4099;52.684;9.918;2022-07-22T10:18:15;3.60;;;3.20;;
8113;SDS011;4099;52.684;9.918;2022-07-22T10:23:21;3.67;;;3.37;;
8113;SDS011;4099;52.684;9.918;2022-07-22T10:28:24;4.27;;;3.40;;
8113;SDS011;4099;52.684;9.918;2022-07-22T10:33:30;5.77;;;3.80;;
8113;SDS011;4099;52.684;9.918;2022-07-22T10:38:33;6.07;;;4.10;;
8113;SDS011;4099;52.684;9.918;2022-07-22T10:43:45;6.30;;;4.10;;
8113;SDS011;4099;52.684;9.918;2022-07-22T10:48:50;6.03;;;4.77;;
8113;SDS011;4099;52.684;9.918;2022-07-22T10:53:53;7.20;;;4.83;;
8113;SDS011;4099;52.684;9.918;2022-07-22T10:58:57;6.17;;;4.43;;
8113;SDS011;4099;52.684;9.918;2022-07-22T11:04:18;6.17;;;4.10;;
8113;SDS011;4099;52.684;9.918;2022-07-22T11:09:22;5.30;;;3.97;;
8113;SDS011;4099;52.684;9.918;2022-07-22T11:14:32;6.70;;;4.30;;
8113;SDS011;4099;52.684;9.918;2022-07-22T11:19:37;5.43;;;4.30;;
8113;SDS011;4099;52.684;9.918;2022-07-22T11:24:40;5.43;;;3.93;;
8113;SDS011;4099;52.684;9.918;2022-07-22T11:29:42;6.50;;;4.57;;
8113;SDS011;4099;52.684;9.918;2022-07-22T11:34:49;6.47;;;3.80;;
8113;SDS011;4099;52.684;9.918;2022-07-22T11:39:52;5.80;;;3.93;;
8113;SDS011;4099;52.684;9.918;2022-07-22T11:45:01;4.90;;;3.90;;
8113;SDS011;4099;52.684;9.918;2022-07-22T11:50:05;6.47;;;3.60;;
8113;SDS011;4099;52.684;9.918;2022-07-22T11:55:14;6.37;;;3.90;;
8113;SDS011;4099;52.684;9.918;2022-07-22T12:00:16;5.37;;;4.17;;
8113;SDS011;4099;52.684;9.918;2022-07-22T12:05:20;5.03;;;4.00;;
8113;SDS011;4099;52.684;9.918;2022-07-22T12:10:22;6.33;;;4.13;;
8113;SDS011;4099;52.684;9.918;2022-07-22T12:15:24;6.23;;;4.03;;
8113;SDS011;4099;52.684;9.918;2022-07-22T12:20:27;5.67;;;3.80;;
8113;SDS011;4099;52.684;9.918;2022-07-22T12:25:29;5.40;;;4.13;;
8113;SDS011;4099;52.684;9.918;2022-07-22T12:30:31;5.53;;;4.30;;
8113;SDS011;4099;52.684;9.918;2022-07-22T12:35:34;7.50;;;4.57;;
8113;SDS011;4099;52.684;9.918;2022-07-22T12:40:36;5.73;;;5.10;;
8113;SDS011;4099;52.684;9.918;2022-07-22T12:45:39;5.50;;;4.43;;
8113;SDS011;4099;52.684;9.918;2022-07-22T12:50:53;7.30;;;4.70;;
8113;SDS011;4099;52.684;9.918;2022-07-22T12:55:57;5.33;;;4.47;;
8113;SDS011;4099;52.684;9.918;2022-07-22T13:01:01;4.63;;;4.00;;
8113;SDS011;4099;52.684;9.918;2022-07-22T13:06:05;4.63;;;4.23;;
8113;SDS011;4099;52.684;9.918;2022-07-22T13:11:06;5.10;;;4.60;;
8113;SDS011;4099;52.684;9.918;2022-07-22T13:16:08;6.77;;;5.00;;
8113;SDS011;4099;52.684;9.918;2022-07-22T13:21:12;7.53;;;4.83;;
8113;SDS011;4099;52.684;9.918;2022-07-22T13:26:14;5.77;;;3.93;;
8113;SDS011;4099;52.684;9.918;2022-07-22T13:31:16;7.20;;;4.53;;
8113;SDS011;4099;52.684;9.918;2022-07-22T13:36:19;6.30;;;4.43;;
8113;SDS011;4099;52.684;9.918;2022-07-22T13:41:22;4.90;;;4.50;;
8113;SDS011;4099;52.684;9.918;2022-07-22T13:46:24;4.70;;;4.23;;
8113;SDS011;4099;52.684;9.918;2022-07-22T13:51:27;6.00;;;4.53;;
8113;SDS011;4099;52.684;9.918;2022-07-22T13:56:30;6.10;;;4.90;;
8113;SDS011;4099;52.684;9.918;2022-07-22T14:01:32;6.47;;;4.73;;
8113;SDS011;4099;52.684;9.918;2022-07-22T14:06:35;5.80;;;4.03;;
8113;SDS011;4099;52.684;9.918;2022-07-22T14:11:37;5.37;;;4.40;;
8113;SDS011;4099;52.684;9.918;2022-07-22T14:16:39;5.67;;;4.30;;
8113;SDS011;4099;52.684;9.918;2022-07-22T14:21:43;4.73;;;4.10;;
8113;SDS011;4099;52.684;9.918;2022-07-22T14:26:46;7.10;;;4.30;;
8113;SDS011;4099;52.684;9.918;2022-07-22T14:31:48;6.33;;;4.33;;
8113;SDS011;4099;52.684;9.918;2022-07-22T14:36:52;5.53;;;4.50;;
8113;SDS011;4099;52.684;9.918;2022-07-22T14:41:54;7.30;;;4.40;;
8113;SDS011;4099;52.684;9.918;2022-07-22T14:46:56;7.40;;;4.23;;
8113;SDS011;4099;52.684;9.918;2022-07-22T14:52:01;6.60;;;4.07;;
8113;SDS011;4099;52.684;9.918;2022-07-22T14:57:03;11.17;;;4.77;;
8113;SDS011;4099;52.684;9.918;2022-07-22T15:02:05;4.77;;;4.10;;
8113;SDS011;4099;52.684;9.918;2022-07-22T15:07:09;4.83;;;4.40;;
8113;SDS011;4099;52.684;9.918;2022-07-22T15:12:11;4.70;;;4.27;;
8113;SDS011;4099;52.684;9.918;2022-07-22T15:17:13;6.03;;;4.33;;
8113;SDS011;4099;52.684;9.918;2022-07-22T15:22:16;5.73;;;4.83;;
8113;SDS011;4099;52.684;9.918;2022-07-22T15:27:20;7.30;;;4.03;;
8113;SDS011;4099;52.684;9.918;2022-07-22T15:32:23;5.13;;;4.27;;
8113;SDS011;4099;52.684;9.918;2022-07-22T15:37:26;6.67;;;4.37;;
8113;SDS011;4099;52.684;9.918;2022-07-22T15:42:29;4.20;;;3.80;;
8113;SDS011;4099;52.684;9.918;2022-07-22T15:47:31;4.50;;;4.10;;
8113;SDS011;4099;52.684;9.918;2022-07-22T15:52:35;7.20;;;5.30;;
8113;SDS011;4099;52.684;9.918;2022-07-22T15:57:38;5.00;;;3.80;;
8113;SDS011;4099;52.684;9.918;2022-07-22T16:02:58;4.87;;;4.37;;
8113;SDS011;4099;52.684;9.918;2022-07-22T16:08:02;5.73;;;4.20;;
8113;SDS011;4099;52.684;9.918;2022-07-22T16:13:04;6.03;;;4.30;;
8113;SDS011;4099;52.684;9.918;2022-07-22T16:18:07;6.80;;;4.30;;
8113;SDS011;4099;52.684;9.918;2022-07-22T16:23:13;5.50;;;3.73;;
8113;SDS011;4099;52.684;9.918;2022-07-22T16:28:16;6.30;;;4.10;;
8113;SDS011;4099;52.684;9.918;2022-07-22T16:33:18;7.07;;;4.23;;
8113;SDS011;4099;52.684;9.918;2022-07-22T16:38:22;6.07;;;4.10;;
8113;SDS011;4099;52.684;9.918;2022-07-22T16:43:25;6.33;;;4.17;;
8113;SDS011;4099;52.684;9.918;2022-07-22T16:48:30;6.60;;;4.30;;
8113;SDS011;4099;52.684;9.918;2022-07-22T16:53:33;4.67;;;4.20;;
8113;SDS011;4099;52.684;9.918;2022-07-22T16:58:37;4.03;;;3.60;;
8113;SDS011;4099;52.684;9.918;2022-07-22T17:03:39;6.00;;;4.20;;
8113;SDS011;4099;52.684;9.918;2022-07-22T17:08:43;4.67;;;4.00;;
8113;SDS011;4099;52.684;9.918;2022-07-22T17:13:45;4.57;;;4.07;;
8113;SDS011;4099;52.684;9.918;2022-07-22T17:18:48;5.17;;;4.00;;
8113;SDS011;4099;52.684;9.918;2022-07-22T17:23:52;5.67;;;4.43;;
8113;SDS011;4099;52.684;9.918;2022-07-22T17:28:54;5.00;;;4.37;;
8113;SDS011;4099;52.684;9.918;2022-07-22T17:33:56;7.27;;;4.23;;
8113;SDS011;4099;52.684;9.918;2022-07-22T17:39:01;5.00;;;4.13;;
8113;SDS011;4099;52.684;9.918;2022-07-22T17:44:04;6.70;;;4.03;;
8113;SDS011;4099;52.684;9.918;2022-07-22T17:49:10;7.20;;;4.00;;
8113;SDS011;4099;52.684;9.918;2022-07-22T17:54:14;6.53;;;3.93;;
8113;SDS011;4099;52.684;9.918;2022-07-22T17:59:16;4.47;;;4.07;;
8113;SDS011;4099;52.684;9.918;2022-07-22T18:04:18;5.57;;;3.90;;
8113;SDS011;4099;52.684;9.918;2022-07-22T18:09:23;4.80;;;4.27;;
8113;SDS011;4099;52.684;9.918;2022-07-22T18:14:26;4.13;;;3.73;;
8113;SDS011;4099;52.684;9.918;2022-07-22T18:19:28;5.47;;;4.07;;
8113;SDS011;4099;52.684;9.918;2022-07-22T18:24:32;5.17;;;4.10;;
8113;SDS011;4099;52.684;9.918;2022-07-22T18:29:34;4.60;;;4.20;;
8113;SDS011;4099;52.684;9.918;2022-07-22T18:34:36;6.30;;;4.27;;
8113;SDS011;4099;52.684;9.918;2022-07-22T18:39:41;6.87;;;4.50;;
8113;SDS011;4099;52.684;9.918;2022-07-22T18:44:44;6.70;;;4.50;;
8113;SDS011;4099;52.684;9.918;2022-07-22T18:49:46;5.37;;;4.17;;
8113;SDS011;4099;52.684;9.918;2022-07-22T18:54:50;6.73;;;4.03;;
8113;SDS011;4099;52.684;9.918;2022-07-22T18:59:52;4.50;;;4.03;;
8113;SDS011;4099;52.684;9.918;2022-07-22T19:04:54;4.33;;;3.97;;
8113;SDS011;4099;52.684;9.918;2022-07-22T19:09:59;5.87;;;4.20;;
8113;SDS011;4099;52.684;9.918;2022-07-22T19:15:03;6.10;;;4.80;;
8113;SDS011;4099;52.684;9.918;2022-07-22T19:20:07;6.00;;;4.20;;
8113;SDS011;4099;52.684;9.918;2022-07-22T19:25:14;5.80;;;4.73;;
8113;SDS011;4099;52.684;9.918;2022-07-22T19:30:16;8.57;;;4.83;;
8113;SDS011;4099;52.684;9.918;2022-07-22T19:35:19;5.97;;;4.73;;
8113;SDS011;4099;52.684;9.918;2022-07-22T19:40:22;7.90;;;5.00;;
8113;SDS011;4099;52.684;9.918;2022-07-22T19:45:24;5.77;;;4.77;;
8113;SDS011;4099;52.684;9.918;2022-07-22T19:50:27;5.60;;;4.80;;
8113;SDS011;4099;52.684;9.918;2022-07-22T19:55:31;8.00;;;4.83;;
8113;SDS011;4099;52.684;9.918;2022-07-22T20:00:34;5.70;;;4.60;;
8113;SDS011;4099;52.684;9.918;2022-07-22T20:05:36;6.13;;;4.67;;
8113;SDS011;4099;52.684;9.918;2022-07-22T20:10:40;5.90;;;4.30;;
8113;SDS011;4099;52.684;9.918;2022-07-22T20:15:42;5.00;;;4.50;;
8113;SDS011;4099;52.684;9.918;2022-07-22T20:20:45;6.10;;;4.97;;
8113;SDS011;4099;52.684;9.918;2022-07-22T20:25:49;6.43;;;4.90;;
8113;SDS011;4099;52.684;9.918;2022-07-22T20:30:52;5.80;;;4.83;;
8113;SDS011;4099;52.684;9.918;2022-07-22T20:35:54;5.43;;;4.70;;
8113;SDS011;4099;52.684;9.918;2022-07-22T20:40:58;5.00;;;4.50;;
8113;SDS011;4099;52.684;9.918;2022-07-22T20:46:00;5.77;;;4.50;;
8113;SDS011;4099;52.684;9.918;2022-07-22T20:51:04;6.57;;;4.63;;
8113;SDS011;4099;52.684;9.918;2022-07-22T20:56:08;8.43;;;5.27;;
8113;SDS011;4099;52.684;9.918;2022-07-22T21:01:10;5.23;;;4.73;;
8113;SDS011;4099;52.684;9.918;2022-07-22T21:06:13;7.73;;;5.43;;
8113;SDS011;4099;52.684;9.918;2022-07-22T21:11:17;6.60;;;5.60;;
8113;SDS011;4099;52.684;9.918;2022-07-22T21:16:19;5.93;;;4.67;;
8113;SDS011;4099;52.684;9.918;2022-07-22T21:21:21;6.83;;;4.77;;
8113;SDS011;4099;52.684;9.918;2022-07-22T21:26:25;6.10;;;5.03;;
8113;SDS011;4099;52.684;9.918;2022-07-22T21:31:27;5.67;;;4.43;;
8113;SDS011;4099;52.684;9.918;2022-07-22T21:36:30;6.60;;;5.40;;
8113;SDS011;4099;52.684;9.918;2022-07-22T21:41:34;7.10;;;5.03;;
8113;SDS011;4099;52.684;9.918;2022-07-22T21:46:36;6.77;;;5.60;;
8113;SDS011;4099;52.684;9.918;2022-07-22T21:51:38;5.83;;;4.90;;
8113;SDS011;4099;52.684;9.918;2022-07-22T21:56:43;7.40;;;5.60;;
8113;SDS011;4099;52.684;9.918;2022-07-22T22:01:58;5.70;;;5.10;;
8113;SDS011;4099;52.684;9.918;2022-07-22T22:07:01;5.63;;;5.10;;
8113;SDS011;4099;52.684;9.918;2022-07-22T22:12:06;9.87;;;5.83;;
8113;SDS011;4099;52.684;9.918;2022-07-22T22:17:08;6.93;;;5.57;;
8113;SDS011;4099;52.684;9.918;2022-07-22T22:22:10;6.37;;;5.20;;
8113;SDS011;4099;52.684;9.918;2022-07-22T22:27:14;6.00;;;5.40;;
8113;SDS011;4099;52.684;9.918;2022-07-22T22:32:16;7.23;;;5.33;;
8113;SDS011;4099;52.684;9.918;2022-07-22T22:37:19;8.77;;;5.30;;
8113;SDS011;4099;52.684;9.918;2022-07-22T22:42:23;7.13;;;5.03;;
8113;SDS011;4099;52.684;9.918;2022-07-22T22:47:25;6.50;;;4.87;;
8113;SDS011;4099;52.684;9.918;2022-07-22T22:52:28;5.67;;;5.17;;
8113;SDS011;4099;52.684;9.918;2022-07-22T22:57:31;7.47;;;5.43;;
8113;SDS011;4099;52.684;9.918;2022-07-22T23:02:37;5.63;;;5.03;;
8113;SDS011;4099;52.684;9.918;2022-07-22T23:07:39;7.67;;;6.30;;
8113;SDS011;4099;52.684;9.918;2022-07-22T23:12:42;6.03;;;5.43;;
8113;SDS011;4099;52.684;9.918;2022-07-22T23:17:45;6.87;;;6.23;;
8113;SDS011;4099;52.684;9.918;2022-07-22T23:22:48;6.13;;;5.53;;
8113;SDS011;4099;52.684;9.918;2022-07-22T23:27:51;5.67;;;5.07;;
8113;SDS011;4099;52.684;9.918;2022-07-22T23:32:54;8.37;;;5.80;;
8113;SDS011;4099;52.684;9.918;2022-07-22T23:37:56;5.50;;;5.00;;
8113;SDS011;4099;52.684;9.918;2022-07-22T23:42:59;6.90;;;6.20;;
8113;SDS011;4099;52.684;9.918;2022-07-22T23:48:01;6.77;;;6.10;;
8113;SDS011;4099;52.684;9.918;2022-07-22T23:53:03;8.33;;;6.57;;
8113;SDS011;4099;52.684;9.918;2022-07-22T23:58:06;7.63;;;6.83;;
